Airfield :
LOGIN :

Register | Disclaimer

   EN    FR    IT 

 










Legend :    VFR   Marginal VFR   IFR   Intensive IFR   Very Intensive IFR
Visi :
Ceiling :
>= 8 km
>= 3000ft
5 to 8 km
1000 to 3000 ft
1500m to 5 km
500 to 1000 ft
800 to 1500m
200 to 500 ft
< 800m
< 200 ft
Symbols :   Thunderstorms  Fog  Heavy snow  Heavy precipitations  Wind > 20 kt
SIGMETs :     Misc.  Thunderstorms  Icing  Turbulence  Mountain Waves  Volcanic Ashes






- Airport Elevation : 870 ft
- IATA code : ETZ


LFJL - Metz Nancy Lorraine

CURRENT METAR :
  • 300200Z AUTO 16007KT 3900 1800 BR BKN007 OVC017 13/13 Q1017 TEMPO 2000 -RADZ BR

EXPIRED METARs :
  • 300130Z AUTO 16007KT 4800 BR SCT010 OVC018 13/13 Q1018 TEMPO 2000 -RADZ BR BKN005
  • 300100Z AUTO 16006KT 2600 -DZ BR OVC007 13/13 Q1018 NOSIG
  • 300030Z AUTO 17006KT 8000 OVC007 13/13 Q1018 TEMPO 2000 -RADZ BR
  • 300000Z AUTO 16006KT 4700 BR OVC007 13/13 Q1018 TEMPO 2000 -RADZ BR
  • 292330Z AUTO 18006KT 3000 -DZ BR OVC008 13/13 Q1018 NOSIG
  • 292300Z AUTO 18005KT 7000 OVC011 14/13 Q1018 TEMPO 1200 BR BKN003

TAF TAF LFJL
Valid from the 30 at 00:00 until the 01 at 00:00 UTC


292300Z 3000/3024 21005KT 9999 SCT017 BKN040
PROB30
TEMPO 3000/3008 2000 -RADZ BR BKN005
BECMG 3008/3010 15010KT



MET'MAP, your aeronautical weather chart ! - Copyright ORBIFLY December 2007 - Disclaimer

ORBIFLY MET'MAP TEAM :

Programming & Development : Alexandra Zaïnal
Concept & original design : Baudouin d'Aumeries
Assistance for programming : Marc-Olivier Méhu
Technical & hardware support : Manuel Goepfert

Contact : metmap@orbifly.com




SOURCES & CREDITS :

   NOAA